Time,TemperatureF,DewpointF,PressureIn,WindDirection,WindDirectionDegrees,WindSpeedMPH,WindSpeedGustMPH,Humidity,HourlyPrecipIn,Conditions,Clouds,dailyrainin,SoftwareType,DateUTC
2013-09-24 00:04:00,76.0,71.0,29.94,West,271,0.0,0.0,85,0.04,,,0.21,,2013-09-24 04:04:00,
2013-09-24 00:14:00,76.0,71.0,29.94,West,271,0.0,0.0,85,0.04,,,0.21,,2013-09-24 04:14:00,
2013-09-24 00:24:00,76.0,71.0,29.93,West,271,0.0,0.0,85,0.00,,,0.21,,2013-09-24 04:24:00,
2013-09-24 00:54:00,76.0,71.0,29.93,West,271,0.0,0.0,85,0.00,,,0.21,,2013-09-24 04:54:00,
2013-09-24 01:23:00,78.0,73.0,29.93,SE,129,0.0,0.0,85,0.00,,,0.21,,2013-09-24 05:23:00,
2013-09-24 01:53:00,78.0,73.0,29.93,ENE,69,0.0,2.0,85,0.00,,,0.21,,2013-09-24 05:53:00,
2013-09-24 02:02:00,78.0,73.0,29.93,ENE,69,0.0,2.0,85,0.00,,,0.21,,2013-09-24 06:02:00,
2013-09-24 02:22:00,77.0,72.0,29.93,ENE,70,0.0,1.0,85,0.00,,,0.21,,2013-09-24 06:22:00,
2013-09-24 02:52:00,77.0,72.0,29.94,ENE,61,0.0,3.0,84,0.00,,,0.21,,2013-09-24 06:52:00,
2013-09-24 03:22:00,77.0,72.0,29.93,NE,56,0.0,3.0,84,0.00,,,0.21,,2013-09-24 07:22:00,
2013-09-24 03:52:00,76.0,71.0,29.92,NE,56,0.0,0.0,84,0.00,,,0.21,,2013-09-24 07:52:00,
2013-09-24 04:23:00,76.0,71.0,29.91,NE,56,0.0,0.0,84,0.00,,,0.21,,2013-09-24 08:23:00,
2013-09-24 04:32:00,76.0,71.0,29.91,NE,56,0.0,0.0,84,0.00,,,0.21,,2013-09-24 08:32:00,
2013-09-24 04:52:00,76.0,71.0,29.90,NE,56,0.0,0.0,84,0.00,,,0.21,,2013-09-24 08:52:00,
2013-09-24 05:12:00,76.0,71.0,29.90,NE,56,0.0,0.0,84,0.00,,,0.21,,2013-09-24 09:12:00,
2013-09-24 05:21:00,76.0,71.0,29.90,NE,56,0.0,0.0,84,0.00,,,0.21,,2013-09-24 09:21:00,
2013-09-24 05:54:00,76.0,71.0,29.91,NE,56,0.0,0.0,84,0.00,,,0.21,,2013-09-24 09:54:00,
2013-09-24 06:03:00,76.0,71.0,29.91,NE,56,0.0,0.0,84,0.00,,,0.21,,2013-09-24 10:03:00,
2013-09-24 06:23:00,76.0,71.0,29.90,NE,56,0.0,0.0,84,0.00,,,0.21,,2013-09-24 10:23:00,
2013-09-24 06:53:00,75.0,70.0,29.90,NE,56,0.0,0.0,84,0.00,,,0.21,,2013-09-24 10:53:00,
2013-09-24 07:11:00,75.0,70.0,29.90,NE,56,0.0,0.0,84,0.00,,,0.21,,2013-09-24 11:11:00,
2013-09-24 07:22:00,75.0,70.0,29.90,NE,56,0.0,0.0,84,0.00,,,0.21,,2013-09-24 11:22:00,
2013-09-24 07:32:00,75.0,70.0,29.91,NE,56,0.0,0.0,85,0.00,,,0.18,,2013-09-24 11:32:00,
2013-09-24 07:33:00,75.0,70.0,29.90,NE,56,0.0,0.0,84,0.00,,,0.21,,2013-09-24 11:33:00,
2013-09-24 07:52:00,75.0,70.0,29.91,NE,56,0.0,0.0,85,0.00,,,0.18,,2013-09-24 11:52:00,
2013-09-24 08:01:00,75.0,70.0,29.91,NE,56,0.0,0.0,85,0.00,,,0.18,,2013-09-24 12:01:00,
2013-09-24 08:12:00,75.0,70.0,29.91,NE,56,0.0,0.0,85,0.00,,,0.18,,2013-09-24 12:12:00,
2013-09-24 08:22:00,75.0,70.0,29.91,NE,56,0.0,0.0,85,0.00,,,0.18,,2013-09-24 12:22:00,
2013-09-24 08:52:00,77.0,72.0,29.93,NE,56,0.0,0.0,86,0.00,,,0.17,,2013-09-24 12:52:00,
2013-09-24 09:22:00,79.0,74.0,29.94,NE,56,0.0,0.0,85,0.00,,,0.17,,2013-09-24 13:22:00,
2013-09-24 09:52:00,80.0,75.0,29.94,ENE,57,0.0,1.0,85,0.00,,,0.17,,2013-09-24 13:52:00,
2013-09-24 10:02:00,80.0,75.0,29.94,ENE,57,0.0,1.0,85,0.00,,,0.17,,2013-09-24 14:02:00,
2013-09-24 10:21:00,83.0,77.0,29.94,SSE,165,0.0,0.0,82,0.00,,,0.17,,2013-09-24 14:21:00,
2013-09-24 10:52:00,85.0,79.0,29.94,SW,224,0.0,1.0,83,0.00,,,0.17,,2013-09-24 14:52:00,
2013-09-24 11:22:00,86.0,79.0,29.95,SW,234,7.0,7.0,80,0.00,,,0.17,,2013-09-24 15:22:00,
2013-09-24 11:54:00,86.0,79.0,29.94,SW,221,1.0,7.0,80,0.00,,,0.17,,2013-09-24 15:54:00,
2013-09-24 12:03:00,86.0,79.0,29.94,SW,221,1.0,7.0,80,0.00,,,0.17,,2013-09-24 16:03:00,
2013-09-24 12:23:00,88.0,79.0,29.93,South,175,0.0,3.0,76,0.00,,,0.17,,2013-09-24 16:23:00,
2013-09-24 12:53:00,84.0,78.0,29.93,WSW,248,0.0,0.0,82,0.02,,,0.19,,2013-09-24 16:53:00,
2013-09-24 13:22:00,87.0,79.0,29.91,WSW,247,3.0,10.0,77,0.02,,,0.19,,2013-09-24 17:22:00,
2013-09-24 13:23:00,86.0,79.0,29.91,WSW,246,1.0,3.0,81,0.02,,,0.19,,2013-09-24 17:23:00,
2013-09-24 13:54:00,87.0,79.0,29.91,WSW,247,3.0,10.0,77,0.02,,,0.19,,2013-09-24 17:54:00,
2013-09-24 14:03:00,87.0,79.0,29.91,WSW,247,3.0,10.0,77,0.02,,,0.19,,2013-09-24 18:03:00,
2013-09-24 14:12:00,87.0,79.0,29.91,WSW,247,3.0,10.0,77,0.02,,,0.19,,2013-09-24 18:12:00,
2013-09-24 14:53:00,88.0,79.0,29.90,SW,230,0.0,3.0,74,0.00,,,0.19,,2013-09-24 18:53:00,
2013-09-24 15:12:00,88.0,79.0,29.90,WSW,248,3.0,7.0,75,0.00,,,0.19,,2013-09-24 19:12:00,
2013-09-24 15:22:00,88.0,79.0,29.90,WSW,248,3.0,7.0,75,0.00,,,0.19,,2013-09-24 19:22:00,
2013-09-24 15:32:00,88.0,79.0,29.90,WSW,248,3.0,7.0,75,0.00,,,0.19,,2013-09-24 19:32:00,
2013-09-24 15:52:00,87.0,79.0,29.89,West,259,2.0,4.0,77,0.00,,,0.19,,2013-09-24 19:52:00,
2013-09-24 16:22:00,77.0,71.0,29.92,NNW,338,7.0,10.0,83,0.07,,,0.25,,2013-09-24 20:22:00,
2013-09-24 16:32:00,77.0,71.0,29.92,NNW,338,7.0,10.0,83,0.07,,,0.25,,2013-09-24 20:32:00,
2013-09-24 16:52:00,73.0,68.0,29.92,NW,304,3.0,13.0,85,0.20,,,0.39,,2013-09-24 20:52:00,
2013-09-24 17:02:00,73.0,68.0,29.92,NW,304,3.0,13.0,85,0.20,,,0.39,,2013-09-24 21:02:00,
2013-09-24 17:22:00,74.0,70.0,29.90,NW,316,0.0,0.0,86,0.17,,,0.39,,2013-09-24 21:22:00,
2013-09-24 17:54:00,74.0,70.0,29.90,NW,316,0.0,2.0,86,0.17,,,0.39,,2013-09-24 21:54:00,
2013-09-24 18:04:00,74.0,70.0,29.90,NW,316,0.0,2.0,86,0.17,,,0.39,,2013-09-24 22:04:00,
2013-09-24 18:23:00,75.0,71.0,29.89,NW,315,0.0,0.0,86,0.00,,,0.26,,2013-09-24 22:23:00,
2013-09-24 18:34:00,75.0,71.0,29.89,NW,315,0.0,0.0,86,0.00,,,0.26,,2013-09-24 22:34:00,
2013-09-24 18:54:00,75.0,71.0,29.89,NW,315,0.0,0.0,86,0.00,,,0.26,,2013-09-24 22:54:00,
2013-09-24 19:22:00,75.0,71.0,29.89,NW,315,0.0,0.0,86,0.00,,,0.26,,2013-09-24 23:22:00,
2013-09-24 19:53:00,74.0,69.0,29.89,NW,315,0.0,0.0,85,0.00,,,0.26,,2013-09-24 23:53:00,
2013-09-24 20:22:00,74.0,69.0,29.90,NW,315,0.0,0.0,85,0.00,,,0.26,,2013-09-25 00:22:00,
2013-09-24 20:52:00,74.0,69.0,29.90,NW,315,0.0,0.0,85,0.00,,,0.26,,2013-09-25 00:52:00,
2013-09-24 21:12:00,74.0,69.0,29.90,NW,315,0.0,0.0,85,0.00,,,0.26,,2013-09-25 01:12:00,
2013-09-24 21:21:00,74.0,69.0,29.90,NW,315,0.0,0.0,85,0.00,,,0.26,,2013-09-25 01:21:00,
2013-09-24 21:32:00,74.0,69.0,29.90,NW,315,0.0,0.0,85,0.00,,,0.26,,2013-09-25 01:32:00,
2013-09-24 21:52:00,74.0,69.0,29.91,NW,315,0.0,1.0,84,0.00,,,0.26,,2013-09-25 01:52:00,
2013-09-24 22:02:00,74.0,69.0,29.91,NW,315,0.0,1.0,84,0.00,,,0.26,,2013-09-25 02:02:00,
2013-09-24 22:12:00,74.0,69.0,29.91,NW,315,0.0,1.0,84,0.00,,,0.26,,2013-09-25 02:12:00,
2013-09-24 22:22:00,74.0,69.0,29.91,NW,315,0.0,1.0,84,0.00,,,0.26,,2013-09-25 02:22:00,
2013-09-24 23:23:00,74.0,69.0,29.88,NW,315,0.0,0.0,84,0.00,,,0.23,,2013-09-25 03:23:00,
2013-09-24 23:34:00,74.0,69.0,29.88,NW,315,0.0,0.0,84,0.00,,,0.23,,2013-09-25 03:34:00,
2013-09-24 23:55:00,74.0,69.0,29.90,NW,315,0.0,0.0,84,0.00,,,0.23,,2013-09-25 03:55:00,